sensor_id;sensor_type;location;lat;lon;timestamp;temperature;humidity
54788;DHT22;59598;48.112;16.280;2023-04-28T00:02:14;5.60;99.90
54788;DHT22;59598;48.112;16.280;2023-04-28T00:04:52;5.70;99.90
54788;DHT22;59598;48.112;16.280;2023-04-28T00:07:24;5.80;99.90
54788;DHT22;59598;48.112;16.280;2023-04-28T00:09:59;5.80;99.90
54788;DHT22;59598;48.112;16.280;2023-04-28T00:12:31;5.80;99.90
54788;DHT22;59598;48.112;16.280;2023-04-28T00:15:06;5.80;99.90
54788;DHT22;59598;48.112;16.280;2023-04-28T00:17:38;5.80;99.90
54788;DHT22;59598;48.112;16.280;2023-04-28T00:20:10;5.70;99.90
54788;DHT22;59598;48.112;16.280;2023-04-28T00:22:47;5.70;99.90
54788;DHT22;59598;48.112;16.280;2023-04-28T00:25:20;5.80;99.90
54788;DHT22;59598;48.112;16.280;2023-04-28T00:27:58;5.80;99.90
54788;DHT22;59598;48.112;16.280;2023-04-28T00:30:30;5.80;99.90
54788;DHT22;59598;48.112;16.280;2023-04-28T00:33:03;5.80;99.90
54788;DHT22;59598;48.112;16.280;2023-04-28T00:35:46;5.80;99.90
54788;DHT22;59598;48.112;16.280;2023-04-28T00:38:21;5.70;99.90
54788;DHT22;59598;48.112;16.280;2023-04-28T00:40:55;5.70;99.90
54788;DHT22;59598;48.112;16.280;2023-04-28T00:43:32;5.70;99.90
54788;DHT22;59598;48.112;16.280;2023-04-28T00:46:26;5.70;99.90
54788;DHT22;59598;48.112;16.280;2023-04-28T00:49:10;5.60;99.90
54788;DHT22;59598;48.112;16.280;2023-04-28T00:51:42;5.60;99.90
54788;DHT22;59598;48.112;16.280;2023-04-28T00:54:16;5.70;99.90
54788;DHT22;59598;48.112;16.280;2023-04-28T00:56:56;5.70;99.90
54788;DHT22;59598;48.112;16.280;2023-04-28T00:59:29;5.80;99.90
54788;DHT22;59598;48.112;16.280;2023-04-28T01:02:01;5.80;99.90
54788;DHT22;59598;48.112;16.280;2023-04-28T01:04:34;5.80;99.90
54788;DHT22;59598;48.112;16.280;2023-04-28T01:07:07;5.70;99.90
54788;DHT22;59598;48.112;16.280;2023-04-28T01:09:39;5.70;99.90
54788;DHT22;59598;48.112;16.280;2023-04-28T01:12:10;5.70;99.90
54788;DHT22;59598;48.112;16.280;2023-04-28T01:14:42;5.60;99.90
54788;DHT22;59598;48.112;16.280;2023-04-28T01:17:16;5.60;99.90
54788;DHT22;59598;48.112;16.280;2023-04-28T01:19:48;5.60;99.90
54788;DHT22;59598;48.112;16.280;2023-04-28T01:22:25;5.60;99.90
54788;DHT22;59598;48.112;16.280;2023-04-28T01:25:03;5.50;99.90
54788;DHT22;59598;48.112;16.280;2023-04-28T01:27:37;5.50;99.90
54788;DHT22;59598;48.112;16.280;2023-04-28T01:30:11;5.50;99.90
54788;DHT22;59598;48.112;16.280;2023-04-28T01:32:43;5.40;99.90
54788;DHT22;59598;48.112;16.280;2023-04-28T01:35:14;5.40;99.90
54788;DHT22;59598;48.112;16.280;2023-04-28T01:37:51;5.20;99.90
54788;DHT22;59598;48.112;16.280;2023-04-28T01:40:23;5.20;99.90
54788;DHT22;59598;48.112;16.280;2023-04-28T01:43:00;5.20;99.90
54788;DHT22;59598;48.112;16.280;2023-04-28T01:45:31;5.10;99.90
54788;DHT22;59598;48.112;16.280;2023-04-28T01:48:03;5.20;99.90
54788;DHT22;59598;48.112;16.280;2023-04-28T01:50:39;5.20;99.90
54788;DHT22;59598;48.112;16.280;2023-04-28T01:53:11;5.10;99.90
54788;DHT22;59598;48.112;16.280;2023-04-28T01:55:44;5.10;99.90
54788;DHT22;59598;48.112;16.280;2023-04-28T01:58:15;5.00;99.90
54788;DHT22;59598;48.112;16.280;2023-04-28T02:00:47;5.00;99.90
54788;DHT22;59598;48.112;16.280;2023-04-28T02:03:30;5.00;99.90
54788;DHT22;59598;48.112;16.280;2023-04-28T02:06:04;5.00;99.90
54788;DHT22;59598;48.112;16.280;2023-04-28T02:08:46;4.90;99.90
54788;DHT22;59598;48.112;16.280;2023-04-28T02:11:30;5.00;99.90
54788;DHT22;59598;48.112;16.280;2023-04-28T02:14:01;4.90;99.90
54788;DHT22;59598;48.112;16.280;2023-04-28T02:16:33;4.90;99.90
54788;DHT22;59598;48.112;16.280;2023-04-28T02:19:04;4.90;99.90
54788;DHT22;59598;48.112;16.280;2023-04-28T02:21:36;4.90;99.90
54788;DHT22;59598;48.112;16.280;2023-04-28T02:24:08;4.90;99.90
54788;DHT22;59598;48.112;16.280;2023-04-28T02:26:39;4.90;99.90
54788;DHT22;59598;48.112;16.280;2023-04-28T02:29:13;4.80;99.90
54788;DHT22;59598;48.112;16.280;2023-04-28T02:31:46;4.90;99.90
54788;DHT22;59598;48.112;16.280;2023-04-28T02:34:18;4.80;99.90
54788;DHT22;59598;48.112;16.280;2023-04-28T02:36:50;4.80;99.90
54788;DHT22;59598;48.112;16.280;2023-04-28T02:39:22;4.70;99.90
54788;DHT22;59598;48.112;16.280;2023-04-28T02:41:55;4.70;99.90
54788;DHT22;59598;48.112;16.280;2023-04-28T02:44:27;4.60;99.90
54788;DHT22;59598;48.112;16.280;2023-04-28T02:46:59;4.60;99.90
54788;DHT22;59598;48.112;16.280;2023-04-28T02:49:31;4.60;99.90
54788;DHT22;59598;48.112;16.280;2023-04-28T02:52:09;4.60;99.90
54788;DHT22;59598;48.112;16.280;2023-04-28T02:54:43;4.50;99.90
54788;DHT22;59598;48.112;16.280;2023-04-28T02:57:19;4.50;99.90
54788;DHT22;59598;48.112;16.280;2023-04-28T02:59:54;4.50;99.90
54788;DHT22;59598;48.112;16.280;2023-04-28T03:02:32;4.50;99.90
54788;DHT22;59598;48.112;16.280;2023-04-28T03:05:16;4.40;99.90
54788;DHT22;59598;48.112;16.280;2023-04-28T03:07:49;4.30;99.90
54788;DHT22;59598;48.112;16.280;2023-04-28T03:10:23;4.20;99.90
54788;DHT22;59598;48.112;16.280;2023-04-28T03:12:57;4.10;99.90
54788;DHT22;59598;48.112;16.280;2023-04-28T03:15:31;4.10;99.90
54788;DHT22;59598;48.112;16.280;2023-04-28T03:18:03;4.10;99.90
54788;DHT22;59598;48.112;16.280;2023-04-28T03:20:39;4.10;99.90
54788;DHT22;59598;48.112;16.280;2023-04-28T03:23:17;3.90;99.90
54788;DHT22;59598;48.112;16.280;2023-04-28T03:25:49;3.90;99.90
54788;DHT22;59598;48.112;16.280;2023-04-28T03:28:23;3.80;99.90
54788;DHT22;59598;48.112;16.280;2023-04-28T03:30:57;3.70;99.90
54788;DHT22;59598;48.112;16.280;2023-04-28T03:33:31;3.70;99.90
54788;DHT22;59598;48.112;16.280;2023-04-28T03:36:05;3.70;99.90
54788;DHT22;59598;48.112;16.280;2023-04-28T03:38:39;3.70;99.90
54788;DHT22;59598;48.112;16.280;2023-04-28T03:41:20;3.80;99.90
54788;DHT22;59598;48.112;16.280;2023-04-28T03:43:53;3.80;99.90
54788;DHT22;59598;48.112;16.280;2023-04-28T03:46:26;3.90;99.90
54788;DHT22;59598;48.112;16.280;2023-04-28T03:49:01;3.90;99.90
54788;DHT22;59598;48.112;16.280;2023-04-28T03:51:35;4.00;99.90
54788;DHT22;59598;48.112;16.280;2023-04-28T03:54:09;4.10;99.90
54788;DHT22;59598;48.112;16.280;2023-04-28T03:56:41;4.10;99.90
54788;DHT22;59598;48.112;16.280;2023-04-28T03:59:16;4.10;99.90
54788;DHT22;59598;48.112;16.280;2023-04-28T04:01:50;4.20;99.90
54788;DHT22;59598;48.112;16.280;2023-04-28T04:04:27;4.20;99.90
54788;DHT22;59598;48.112;16.280;2023-04-28T04:07:05;4.30;99.90
54788;DHT22;59598;48.112;16.280;2023-04-28T04:09:38;4.40;99.90
54788;DHT22;59598;48.112;16.280;2023-04-28T04:12:15;4.50;99.90
54788;DHT22;59598;48.112;16.280;2023-04-28T04:14:52;4.60;99.90
54788;DHT22;59598;48.112;16.280;2023-04-28T04:17:26;4.60;99.90
54788;DHT22;59598;48.112;16.280;2023-04-28T04:19:57;4.70;99.90
54788;DHT22;59598;48.112;16.280;2023-04-28T04:22:33;4.80;99.90
54788;DHT22;59598;48.112;16.280;2023-04-28T04:25:16;4.90;99.90
54788;DHT22;59598;48.112;16.280;2023-04-28T04:27:50;5.00;99.90
54788;DHT22;59598;48.112;16.280;2023-04-28T04:30:24;5.00;99.90
54788;DHT22;59598;48.112;16.280;2023-04-28T04:33:00;5.00;99.90
54788;DHT22;59598;48.112;16.280;2023-04-28T04:35:40;5.20;99.90
54788;DHT22;59598;48.112;16.280;2023-04-28T04:38:12;5.20;99.90
54788;DHT22;59598;48.112;16.280;2023-04-28T04:40:46;5.40;99.90
54788;DHT22;59598;48.112;16.280;2023-04-28T04:43:20;5.60;99.90
54788;DHT22;59598;48.112;16.280;2023-04-28T04:45:56;5.90;99.90
54788;DHT22;59598;48.112;16.280;2023-04-28T04:48:28;6.10;99.90
54788;DHT22;59598;48.112;16.280;2023-04-28T04:51:03;6.20;99.90
54788;DHT22;59598;48.112;16.280;2023-04-28T04:53:37;6.40;99.90
54788;DHT22;59598;48.112;16.280;2023-04-28T04:56:11;6.70;99.90
54788;DHT22;59598;48.112;16.280;2023-04-28T04:58:45;7.00;99.90
54788;DHT22;59598;48.112;16.280;2023-04-28T05:01:17;7.10;99.90
54788;DHT22;59598;48.112;16.280;2023-04-28T05:03:51;7.30;99.90
54788;DHT22;59598;48.112;16.280;2023-04-28T05:06:23;7.60;99.90
54788;DHT22;59598;48.112;16.280;2023-04-28T05:08:58;7.70;99.90
54788;DHT22;59598;48.112;16.280;2023-04-28T05:11:29;7.80;99.90
54788;DHT22;59598;48.112;16.280;2023-04-28T05:14:06;7.90;99.90
54788;DHT22;59598;48.112;16.280;2023-04-28T05:16:40;8.00;99.90
54788;DHT22;59598;48.112;16.280;2023-04-28T05:19:17;8.00;99.90
54788;DHT22;59598;48.112;16.280;2023-04-28T05:21:56;8.00;99.90
54788;DHT22;59598;48.112;16.280;2023-04-28T05:24:28;8.10;99.90
54788;DHT22;59598;48.112;16.280;2023-04-28T05:27:03;8.20;99.90
54788;DHT22;59598;48.112;16.280;2023-04-28T05:29:38;8.30;99.90
54788;DHT22;59598;48.112;16.280;2023-04-28T05:32:14;8.60;99.90
54788;DHT22;59598;48.112;16.280;2023-04-28T05:34:54;8.70;99.90
54788;DHT22;59598;48.112;16.280;2023-04-28T05:37:28;9.00;99.90
54788;DHT22;59598;48.112;16.280;2023-04-28T05:40:02;9.20;99.90
54788;DHT22;59598;48.112;16.280;2023-04-28T05:42:39;9.40;99.90
54788;DHT22;59598;48.112;16.280;2023-04-28T05:45:11;9.40;99.90
54788;DHT22;59598;48.112;16.280;2023-04-28T05:47:42;9.60;99.90
54788;DHT22;59598;48.112;16.280;2023-04-28T05:50:17;10.10;99.90
54788;DHT22;59598;48.112;16.280;2023-04-28T05:52:51;10.30;99.90
54788;DHT22;59598;48.112;16.280;2023-04-28T05:55:26;10.60;99.90
54788;DHT22;59598;48.112;16.280;2023-04-28T05:58:01;10.90;99.90
54788;DHT22;59598;48.112;16.280;2023-04-28T06:00:36;10.80;99.90
54788;DHT22;59598;48.112;16.280;2023-04-28T06:03:09;11.00;99.90
54788;DHT22;59598;48.112;16.280;2023-04-28T06:05:48;11.20;99.90
54788;DHT22;59598;48.112;16.280;2023-04-28T06:08:24;11.30;99.90
54788;DHT22;59598;48.112;16.280;2023-04-28T06:10:55;11.40;99.90
54788;DHT22;59598;48.112;16.280;2023-04-28T06:13:32;11.50;99.90
54788;DHT22;59598;48.112;16.280;2023-04-28T06:16:09;11.60;99.90
54788;DHT22;59598;48.112;16.280;2023-04-28T06:18:43;11.80;99.90
54788;DHT22;59598;48.112;16.280;2023-04-28T06:21:17;11.90;99.90
54788;DHT22;59598;48.112;16.280;2023-04-28T06:23:58;12.10;99.90
54788;DHT22;59598;48.112;16.280;2023-04-28T06:26:32;12.40;99.90
54788;DHT22;59598;48.112;16.280;2023-04-28T06:29:04;12.60;99.90
54788;DHT22;59598;48.112;16.280;2023-04-28T06:31:37;12.70;99.90
54788;DHT22;59598;48.112;16.280;2023-04-28T06:34:14;12.90;99.90
54788;DHT22;59598;48.112;16.280;2023-04-28T06:36:49;13.20;99.90
54788;DHT22;59598;48.112;16.280;2023-04-28T06:39:21;13.40;99.90
54788;DHT22;59598;48.112;16.280;2023-04-28T06:41:55;13.40;99.90
54788;DHT22;59598;48.112;16.280;2023-04-28T06:44:27;12.60;99.90
54788;DHT22;59598;48.112;16.280;2023-04-28T06:47:01;12.40;99.90
54788;DHT22;59598;48.112;16.280;2023-04-28T06:49:38;12.50;99.90
54788;DHT22;59598;48.112;16.280;2023-04-28T06:52:17;12.60;99.90
54788;DHT22;59598;48.112;16.280;2023-04-28T06:54:52;12.90;99.90
54788;DHT22;59598;48.112;16.280;2023-04-28T06:57:28;12.70;99.90
54788;DHT22;59598;48.112;16.280;2023-04-28T07:00:00;12.90;99.90
54788;DHT22;59598;48.112;16.280;2023-04-28T07:02:35;13.40;99.90
54788;DHT22;59598;48.112;16.280;2023-04-28T07:05:12;13.70;99.90
54788;DHT22;59598;48.112;16.280;2023-04-28T07:07:46;14.00;99.90
54788;DHT22;59598;48.112;16.280;2023-04-28T07:10:22;14.10;99.90
54788;DHT22;59598;48.112;16.280;2023-04-28T07:12:54;14.10;99.90
54788;DHT22;59598;48.112;16.280;2023-04-28T07:15:30;14.20;99.90
54788;DHT22;59598;48.112;16.280;2023-04-28T07:18:05;14.40;99.90
54788;DHT22;59598;48.112;16.280;2023-04-28T07:20:37;14.60;99.90
54788;DHT22;59598;48.112;16.280;2023-04-28T07:23:11;14.90;99.90
54788;DHT22;59598;48.112;16.280;2023-04-28T07:25:45;15.10;99.90
54788;DHT22;59598;48.112;16.280;2023-04-28T07:28:25;15.20;99.90
54788;DHT22;59598;48.112;16.280;2023-04-28T07:31:01;15.50;99.90
54788;DHT22;59598;48.112;16.280;2023-04-28T07:33:33;15.60;99.90
54788;DHT22;59598;48.112;16.280;2023-04-28T07:36:10;15.50;99.90
54788;DHT22;59598;48.112;16.280;2023-04-28T07:38:44;15.60;99.90
54788;DHT22;59598;48.112;16.280;2023-04-28T07:41:16;15.80;99.90
54788;DHT22;59598;48.112;16.280;2023-04-28T07:43:49;15.70;99.90
54788;DHT22;59598;48.112;16.280;2023-04-28T07:46:23;15.70;99.90
54788;DHT22;59598;48.112;16.280;2023-04-28T07:49:02;15.60;99.90
54788;DHT22;59598;48.112;16.280;2023-04-28T07:51:37;15.70;99.90
54788;DHT22;59598;48.112;16.280;2023-04-28T07:54:13;15.80;99.90
54788;DHT22;59598;48.112;16.280;2023-04-28T07:56:45;16.00;99.90
54788;DHT22;59598;48.112;16.280;2023-04-28T07:59:19;16.20;99.90
54788;DHT22;59598;48.112;16.280;2023-04-28T08:01:56;16.00;99.90
54788;DHT22;59598;48.112;16.280;2023-04-28T08:04:29;15.70;99.90
54788;DHT22;59598;48.112;16.280;2023-04-28T08:07:08;15.70;99.90
54788;DHT22;59598;48.112;16.280;2023-04-28T08:09:47;16.10;99.90
54788;DHT22;59598;48.112;16.280;2023-04-28T08:12:22;16.70;99.90
54788;DHT22;59598;48.112;16.280;2023-04-28T08:14:53;17.50;99.90
54788;DHT22;59598;48.112;16.280;2023-04-28T08:17:28;17.80;99.90
54788;DHT22;59598;48.112;16.280;2023-04-28T08:20:03;17.60;99.90
54788;DHT22;59598;48.112;16.280;2023-04-28T08:22:43;17.50;99.90
54788;DHT22;59598;48.112;16.280;2023-04-28T08:25:14;17.60;99.90
54788;DHT22;59598;48.112;16.280;2023-04-28T08:27:47;17.20;99.90
54788;DHT22;59598;48.112;16.280;2023-04-28T08:30:25;17.20;99.90
54788;DHT22;59598;48.112;16.280;2023-04-28T08:32:59;17.40;99.90
54788;DHT22;59598;48.112;16.280;2023-04-28T08:35:33;18.20;99.90
54788;DHT22;59598;48.112;16.280;2023-04-28T08:38:06;18.50;99.90
54788;DHT22;59598;48.112;16.280;2023-04-28T08:40:44;18.80;99.90
54788;DHT22;59598;48.112;16.280;2023-04-28T08:43:18;18.80;99.90
54788;DHT22;59598;48.112;16.280;2023-04-28T08:45:56;18.10;99.90
54788;DHT22;59598;48.112;16.280;2023-04-28T08:48:37;18.20;99.90
54788;DHT22;59598;48.112;16.280;2023-04-28T08:51:26;18.50;99.90
54788;DHT22;59598;48.112;16.280;2023-04-28T08:54:03;18.40;99.90
54788;DHT22;59598;48.112;16.280;2023-04-28T08:56:43;18.60;99.90
54788;DHT22;59598;48.112;16.280;2023-04-28T08:59:16;19.10;99.90
54788;DHT22;59598;48.112;16.280;2023-04-28T09:01:49;18.80;99.90
54788;DHT22;59598;48.112;16.280;2023-04-28T09:04:24;19.00;99.90
54788;DHT22;59598;48.112;16.280;2023-04-28T09:06:58;19.20;99.90
54788;DHT22;59598;48.112;16.280;2023-04-28T09:09:30;19.20;99.90
54788;DHT22;59598;48.112;16.280;2023-04-28T09:12:05;19.00;99.90
54788;DHT22;59598;48.112;16.280;2023-04-28T09:14:38;19.10;99.90
54788;DHT22;59598;48.112;16.280;2023-04-28T09:17:11;19.20;99.90
54788;DHT22;59598;48.112;16.280;2023-04-28T09:19:43;19.30;99.90
54788;DHT22;59598;48.112;16.280;2023-04-28T09:22:14;19.50;99.90
54788;DHT22;59598;48.112;16.280;2023-04-28T09:24:51;20.00;99.90
54788;DHT22;59598;48.112;16.280;2023-04-28T09:27:27;20.60;99.90
54788;DHT22;59598;48.112;16.280;2023-04-28T09:29:58;20.70;99.90
54788;DHT22;59598;48.112;16.280;2023-04-28T09:32:30;20.60;99.90
54788;DHT22;59598;48.112;16.280;2023-04-28T09:35:04;20.40;99.90
54788;DHT22;59598;48.112;16.280;2023-04-28T09:37:41;20.30;99.90
54788;DHT22;59598;48.112;16.280;2023-04-28T09:40:13;20.30;99.90
54788;DHT22;59598;48.112;16.280;2023-04-28T09:42:45;20.20;99.90
54788;DHT22;59598;48.112;16.280;2023-04-28T09:45:17;20.00;99.90
54788;DHT22;59598;48.112;16.280;2023-04-28T09:47:52;20.40;99.90
54788;DHT22;59598;48.112;16.280;2023-04-28T09:50:26;20.50;99.90
54788;DHT22;59598;48.112;16.280;2023-04-28T09:53:13;21.00;99.90
54788;DHT22;59598;48.112;16.280;2023-04-28T09:55:45;21.70;99.90
54788;DHT22;59598;48.112;16.280;2023-04-28T09:58:22;21.50;99.90
54788;DHT22;59598;48.112;16.280;2023-04-28T10:00:56;21.10;99.90
54788;DHT22;59598;48.112;16.280;2023-04-28T10:03:32;20.80;99.90
54788;DHT22;59598;48.112;16.280;2023-04-28T10:06:04;20.90;99.90
54788;DHT22;59598;48.112;16.280;2023-04-28T10:08:37;20.30;99.90
54788;DHT22;59598;48.112;16.280;2023-04-28T10:11:10;20.30;99.90
54788;DHT22;59598;48.112;16.280;2023-04-28T10:13:44;20.50;99.90
54788;DHT22;59598;48.112;16.280;2023-04-28T10:16:16;20.70;99.90
54788;DHT22;59598;48.112;16.280;2023-04-28T10:18:51;20.80;99.90
54788;DHT22;59598;48.112;16.280;2023-04-28T10:21:24;20.70;99.90
54788;DHT22;59598;48.112;16.280;2023-04-28T10:24:14;21.40;99.90
54788;DHT22;59598;48.112;16.280;2023-04-28T10:27:03;22.40;99.90
54788;DHT22;59598;48.112;16.280;2023-04-28T10:29:39;22.20;99.90
54788;DHT22;59598;48.112;16.280;2023-04-28T10:38:06;21.10;99.90
54788;DHT22;59598;48.112;16.280;2023-04-28T10:40:48;21.10;99.90
54788;DHT22;59598;48.112;16.280;2023-04-28T10:46:11;21.80;99.90
54788;DHT22;59598;48.112;16.280;2023-04-28T10:56:23;23.00;99.90
54788;DHT22;59598;48.112;16.280;2023-04-28T10:59:00;23.70;99.90
54788;DHT22;59598;48.112;16.280;2023-04-28T11:05:15;23.30;99.90
54788;DHT22;59598;48.112;16.280;2023-04-28T11:11:17;22.10;99.90
54788;DHT22;59598;48.112;16.280;2023-04-28T11:16:54;21.40;99.90
54788;DHT22;59598;48.112;16.280;2023-04-28T11:19:38;20.80;99.90
54788;DHT22;59598;48.112;16.280;2023-04-28T11:22:17;21.10;99.90
54788;DHT22;59598;48.112;16.280;2023-04-28T11:24:58;21.30;99.90
54788;DHT22;59598;48.112;16.280;2023-04-28T11:27:32;21.30;99.90
54788;DHT22;59598;48.112;16.280;2023-04-28T11:30:22;21.10;99.90
54788;DHT22;59598;48.112;16.280;2023-04-28T11:32:56;20.90;99.90
54788;DHT22;59598;48.112;16.280;2023-04-28T11:35:42;21.20;99.90
54788;DHT22;59598;48.112;16.280;2023-04-28T11:38:16;22.00;99.90
54788;DHT22;59598;48.112;16.280;2023-04-28T11:40:57;22.80;99.90
54788;DHT22;59598;48.112;16.280;2023-04-28T11:43:29;23.80;99.90
54788;DHT22;59598;48.112;16.280;2023-04-28T11:46:01;24.30;99.90
54788;DHT22;59598;48.112;16.280;2023-04-28T11:48:36;24.20;99.90
54788;DHT22;59598;48.112;16.280;2023-04-28T11:51:36;24.40;99.90
54788;DHT22;59598;48.112;16.280;2023-04-28T11:54:34;23.30;99.90
54788;DHT22;59598;48.112;16.280;2023-04-28T11:57:19;23.10;99.90
54788;DHT22;59598;48.112;16.280;2023-04-28T12:00:14;22.20;99.90
54788;DHT22;59598;48.112;16.280;2023-04-28T12:02:51;22.20;99.90
54788;DHT22;59598;48.112;16.280;2023-04-28T12:05:23;20.70;99.90
54788;DHT22;59598;48.112;16.280;2023-04-28T12:07:55;20.70;99.90
54788;DHT22;59598;48.112;16.280;2023-04-28T12:10:26;20.20;99.90
54788;DHT22;59598;48.112;16.280;2023-04-28T12:13:16;20.10;99.90
54788;DHT22;59598;48.112;16.280;2023-04-28T12:15:55;19.90;99.90
54788;DHT22;59598;48.112;16.280;2023-04-28T12:18:34;19.60;99.90
54788;DHT22;59598;48.112;16.280;2023-04-28T12:21:19;19.80;99.90
54788;DHT22;59598;48.112;16.280;2023-04-28T12:23:52;19.90;99.90
54788;DHT22;59598;48.112;16.280;2023-04-28T12:26:24;19.30;99.90
54788;DHT22;59598;48.112;16.280;2023-04-28T12:29:03;19.20;99.90
54788;DHT22;59598;48.112;16.280;2023-04-28T12:31:48;19.20;99.90
54788;DHT22;59598;48.112;16.280;2023-04-28T12:34:20;18.90;99.90
54788;DHT22;59598;48.112;16.280;2023-04-28T12:36:55;18.60;99.90
54788;DHT22;59598;48.112;16.280;2023-04-28T12:39:28;18.40;99.90
54788;DHT22;59598;48.112;16.280;2023-04-28T12:42:04;18.50;99.90
54788;DHT22;59598;48.112;16.280;2023-04-28T12:44:37;18.50;99.90
54788;DHT22;59598;48.112;16.280;2023-04-28T12:47:11;18.30;99.90
54788;DHT22;59598;48.112;16.280;2023-04-28T12:49:43;18.20;99.90
54788;DHT22;59598;48.112;16.280;2023-04-28T12:52:15;18.00;99.90
54788;DHT22;59598;48.112;16.280;2023-04-28T12:54:48;17.80;99.90
54788;DHT22;59598;48.112;16.280;2023-04-28T12:57:19;18.00;99.90
54788;DHT22;59598;48.112;16.280;2023-04-28T12:59:53;18.10;99.90
54788;DHT22;59598;48.112;16.280;2023-04-28T13:02:27;18.40;99.90
54788;DHT22;59598;48.112;16.280;2023-04-28T13:05:04;18.60;99.90
54788;DHT22;59598;48.112;16.280;2023-04-28T13:07:36;18.60;99.90
54788;DHT22;59598;48.112;16.280;2023-04-28T13:10:16;18.30;99.90
54788;DHT22;59598;48.112;16.280;2023-04-28T13:12:53;17.90;99.90
54788;DHT22;59598;48.112;16.280;2023-04-28T13:15:27;17.60;99.90
54788;DHT22;59598;48.112;16.280;2023-04-28T13:18:07;17.70;99.90
54788;DHT22;59598;48.112;16.280;2023-04-28T13:20:40;17.90;99.90
54788;DHT22;59598;48.112;16.280;2023-04-28T13:23:13;17.90;99.90
54788;DHT22;59598;48.112;16.280;2023-04-28T13:25:50;17.80;99.90
54788;DHT22;59598;48.112;16.280;2023-04-28T13:28:21;17.80;99.90
54788;DHT22;59598;48.112;16.280;2023-04-28T13:30:54;17.90;99.90
54788;DHT22;59598;48.112;16.280;2023-04-28T13:33:26;17.90;99.90
54788;DHT22;59598;48.112;16.280;2023-04-28T13:36:07;18.10;99.90
54788;DHT22;59598;48.112;16.280;2023-04-28T13:38:40;17.90;99.90
54788;DHT22;59598;48.112;16.280;2023-04-28T13:41:16;17.80;99.90
54788;DHT22;59598;48.112;16.280;2023-04-28T13:43:48;17.80;99.90
54788;DHT22;59598;48.112;16.280;2023-04-28T13:46:23;17.70;99.90
54788;DHT22;59598;48.112;16.280;2023-04-28T13:48:55;17.60;99.90
54788;DHT22;59598;48.112;16.280;2023-04-28T13:51:31;17.40;99.90
54788;DHT22;59598;48.112;16.280;2023-04-28T13:54:05;17.20;99.90
54788;DHT22;59598;48.112;16.280;2023-04-28T13:56:43;17.00;99.90
54788;DHT22;59598;48.112;16.280;2023-04-28T13:59:15;16.90;99.90
54788;DHT22;59598;48.112;16.280;2023-04-28T14:01:47;17.10;99.90
54788;DHT22;59598;48.112;16.280;2023-04-28T14:04:20;17.20;99.90
54788;DHT22;59598;48.112;16.280;2023-04-28T14:06:52;17.20;99.90
54788;DHT22;59598;48.112;16.280;2023-04-28T14:09:24;17.20;99.90
54788;DHT22;59598;48.112;16.280;2023-04-28T14:12:06;17.10;99.90
54788;DHT22;59598;48.112;16.280;2023-04-28T14:14:48;17.00;99.90
54788;DHT22;59598;48.112;16.280;2023-04-28T14:17:27;16.80;99.90
54788;DHT22;59598;48.112;16.280;2023-04-28T14:20:02;16.80;99.90
54788;DHT22;59598;48.112;16.280;2023-04-28T14:22:33;16.80;99.90
54788;DHT22;59598;48.112;16.280;2023-04-28T14:25:13;16.80;99.90
54788;DHT22;59598;48.112;16.280;2023-04-28T14:27:47;16.90;99.90
54788;DHT22;59598;48.112;16.280;2023-04-28T14:30:19;16.90;99.90
54788;DHT22;59598;48.112;16.280;2023-04-28T14:32:51;16.80;99.90
54788;DHT22;59598;48.112;16.280;2023-04-28T14:35:23;16.70;99.90
54788;DHT22;59598;48.112;16.280;2023-04-28T14:37:58;16.50;99.90
54788;DHT22;59598;48.112;16.280;2023-04-28T14:40:34;16.30;99.90
54788;DHT22;59598;48.112;16.280;2023-04-28T14:43:11;16.20;99.90
54788;DHT22;59598;48.112;16.280;2023-04-28T14:45:44;15.90;99.90
54788;DHT22;59598;48.112;16.280;2023-04-28T14:48:24;15.70;99.90
54788;DHT22;59598;48.112;16.280;2023-04-28T14:51:03;15.30;99.90
54788;DHT22;59598;48.112;16.280;2023-04-28T14:53:37;15.20;99.90
54788;DHT22;59598;48.112;16.280;2023-04-28T14:56:11;15.00;99.90
54788;DHT22;59598;48.112;16.280;2023-04-28T14:58:48;15.00;99.90
54788;DHT22;59598;48.112;16.280;2023-04-28T15:01:21;15.00;99.90
54788;DHT22;59598;48.112;16.280;2023-04-28T15:03:54;14.90;99.90
54788;DHT22;59598;48.112;16.280;2023-04-28T15:06:26;14.90;99.90
54788;DHT22;59598;48.112;16.280;2023-04-28T15:08:58;14.80;99.90
54788;DHT22;59598;48.112;16.280;2023-04-28T15:11:30;14.80;99.90
54788;DHT22;59598;48.112;16.280;2023-04-28T15:14:04;14.80;99.90
54788;DHT22;59598;48.112;16.280;2023-04-28T15:16:36;14.80;99.90
54788;DHT22;59598;48.112;16.280;2023-04-28T15:19:08;14.70;99.90
54788;DHT22;59598;48.112;16.280;2023-04-28T15:21:47;14.80;99.90
54788;DHT22;59598;48.112;16.280;2023-04-28T15:24:19;14.80;99.90
54788;DHT22;59598;48.112;16.280;2023-04-28T15:26:54;14.70;99.90
54788;DHT22;59598;48.112;16.280;2023-04-28T15:29:29;14.70;99.90
54788;DHT22;59598;48.112;16.280;2023-04-28T15:32:06;14.60;99.90
54788;DHT22;59598;48.112;16.280;2023-04-28T15:34:37;14.50;99.90
54788;DHT22;59598;48.112;16.280;2023-04-28T15:40:10;14.60;99.90
54788;DHT22;59598;48.112;16.280;2023-04-28T15:42:44;14.60;99.90
54788;DHT22;59598;48.112;16.280;2023-04-28T15:45:20;14.60;99.90
54788;DHT22;59598;48.112;16.280;2023-04-28T15:47:52;14.70;99.90
54788;DHT22;59598;48.112;16.280;2023-04-28T15:50:35;14.50;99.90
54788;DHT22;59598;48.112;16.280;2023-04-28T15:53:10;14.30;99.90
54788;DHT22;59598;48.112;16.280;2023-04-28T15:55:43;14.00;99.90
54788;DHT22;59598;48.112;16.280;2023-04-28T15:58:20;13.90;99.90
54788;DHT22;59598;48.112;16.280;2023-04-28T16:00:52;13.90;99.90
54788;DHT22;59598;48.112;16.280;2023-04-28T16:03:23;13.80;99.90
54788;DHT22;59598;48.112;16.280;2023-04-28T16:05:58;13.80;99.90
54788;DHT22;59598;48.112;16.280;2023-04-28T16:08:34;13.70;99.90
54788;DHT22;59598;48.112;16.280;2023-04-28T16:11:10;13.80;99.90
54788;DHT22;59598;48.112;16.280;2023-04-28T16:13:49;13.80;99.90
54788;DHT22;59598;48.112;16.280;2023-04-28T16:16:23;13.80;99.90
54788;DHT22;59598;48.112;16.280;2023-04-28T16:19:03;13.90;99.90
54788;DHT22;59598;48.112;16.280;2023-04-28T16:21:40;13.90;99.90
54788;DHT22;59598;48.112;16.280;2023-04-28T16:24:14;13.90;99.90
54788;DHT22;59598;48.112;16.280;2023-04-28T16:26:49;13.80;99.90
54788;DHT22;59598;48.112;16.280;2023-04-28T16:29:23;13.80;99.90
54788;DHT22;59598;48.112;16.280;2023-04-28T16:31:54;13.60;99.90
54788;DHT22;59598;48.112;16.280;2023-04-28T16:34:26;13.50;99.90
54788;DHT22;59598;48.112;16.280;2023-04-28T16:36:58;13.30;99.90
54788;DHT22;59598;48.112;16.280;2023-04-28T16:39:36;13.10;99.90
54788;DHT22;59598;48.112;16.280;2023-04-28T16:42:13;12.90;99.90